Time;durP1;ratioP1;P1;durP2;ratioP2;P2;SDS_P1;SDS_P2;PMS_P1;PMS_P2;Temp;Humidity;BMP_temperature;BMP_pressure;BME280_temperature;BME280_humidity;BME280_pressure;Samples;Min_cycle;Max_cycle;Signal;HPM_P1;HPM_P2
2023/02/23 00:00:27;;;;;;;24.07;21.93;;;8.50;99.90;;;;;;5019872;28;20440;-48
2023/02/23 00:02:59;;;;;;;23.50;21.33;;;8.50;99.90;;;;;;5020449;28;20493;-46
2023/02/23 00:05:26;;;;;;;23.13;21.13;;;8.50;99.90;;;;;;5020532;28;20463;-48
2023/02/23 00:07:53;;;;;;;21.67;19.77;;;8.50;99.90;;;;;;5020781;28;20417;-44
2023/02/23 00:10:20;;;;;;;22.60;20.50;;;8.50;99.90;;;;;;5035686;28;20504;-48
2023/02/23 00:12:48;;;;;;;23.23;21.13;;;8.50;99.90;;;;;;5018084;28;20567;-44
2023/02/23 00:15:14;;;;;;;25.23;22.67;;;8.60;99.90;;;;;;5019843;28;20501;-46
2023/02/23 00:17:40;;;;;;;23.07;20.97;;;8.50;99.90;;;;;;5018199;28;20429;-46
2023/02/23 00:20:12;;;;;;;22.93;20.83;;;8.60;99.90;;;;;;5020607;28;20718;-45
2023/02/23 00:22:40;;;;;;;23.30;21.10;;;8.60;99.90;;;;;;5019518;28;21052;-46
2023/02/23 00:25:09;;;;;;;21.43;19.37;;;8.60;99.90;;;;;;5019966;28;20509;-42
2023/02/23 00:27:37;;;;;;;23.10;21.00;;;8.60;99.90;;;;;;5019920;28;20411;-44
2023/02/23 00:30:03;;;;;;;24.10;22.03;;;8.60;99.90;;;;;;5020250;28;20421;-42
2023/02/23 00:32:29;;;;;;;23.80;21.60;;;8.60;99.90;;;;;;5020081;28;20520;-42
2023/02/23 00:34:57;;;;;;;24.03;21.80;;;8.60;99.90;;;;;;5020074;28;20842;-42
2023/02/23 00:37:22;;;;;;;23.60;21.50;;;8.50;99.90;;;;;;5019376;28;20184;-43
2023/02/23 00:39:48;;;;;;;24.30;22.00;;;8.50;99.90;;;;;;5019372;28;20507;-45
2023/02/23 00:42:14;;;;;;;24.10;22.00;;;8.50;99.90;;;;;;5019131;28;20626;-43
2023/02/23 00:44:41;;;;;;;24.57;22.30;;;8.50;99.90;;;;;;5020013;28;20421;-42
2023/02/23 00:47:06;;;;;;;26.13;23.70;;;8.60;99.90;;;;;;5019683;28;20417;-44
2023/02/23 00:49:32;;;;;;;25.43;23.03;;;8.60;99.90;;;;;;5020039;28;20981;-45
2023/02/23 00:51:58;;;;;;;25.33;22.93;;;8.60;99.90;;;;;;5019905;28;20207;-44
2023/02/23 00:54:24;;;;;;;25.30;23.00;;;8.60;99.90;;;;;;5019771;28;20836;-44
2023/02/23 00:56:50;;;;;;;25.00;22.60;;;8.60;99.90;;;;;;5019539;28;20183;-45
2023/02/23 00:59:16;;;;;;;24.40;22.30;;;8.60;99.90;;;;;;5019545;28;20417;-44
2023/02/23 01:01:42;;;;;;;23.77;21.73;;;8.60;99.90;;;;;;5019247;28;20418;-45
2023/02/23 01:04:08;;;;;;;23.30;21.20;;;8.70;99.90;;;;;;5019613;28;20448;-44
2023/02/23 01:06:36;;;;;;;24.50;22.30;;;8.60;99.90;;;;;;5019125;28;20187;-48
2023/02/23 01:09:07;;;;;;;25.80;23.40;;;8.60;99.90;;;;;;5017972;28;20719;-45
2023/02/23 01:11:33;;;;;;;25.50;23.20;;;8.70;99.90;;;;;;5019253;28;20426;-43
2023/02/23 01:13:59;;;;;;;26.40;24.00;;;8.60;99.90;;;;;;5019329;28;20477;-46
2023/02/23 01:16:28;;;;;;;25.07;22.67;;;8.70;99.90;;;;;;5019383;28;20421;-44
2023/02/23 01:18:56;;;;;;;25.67;23.37;;;8.70;99.90;;;;;;5018957;28;20963;-46
2023/02/23 01:21:29;;;;;;;24.47;22.17;;;8.70;99.90;;;;;;5019150;28;20456;-44
2023/02/23 01:23:55;;;;;;;25.50;23.10;;;8.70;99.90;;;;;;5018979;28;20417;-45
2023/02/23 01:26:24;;;;;;;25.43;23.03;;;8.70;99.90;;;;;;5036790;28;20850;-46
2023/02/23 01:28:59;;;;;;;26.30;23.90;;;8.70;99.90;;;;;;5025726;28;20428;-43
2023/02/23 01:31:25;;;;;;;26.20;23.53;;;8.60;99.90;;;;;;5025902;28;20435;-43
2023/02/23 01:33:56;;;;;;;26.53;24.10;;;8.70;99.90;;;;;;5025845;28;20465;-46
2023/02/23 01:36:22;;;;;;;25.73;23.03;;;8.60;99.90;;;;;;5025757;28;20930;-44
2023/02/23 01:38:48;;;;;;;25.30;23.00;;;8.70;99.90;;;;;;5024766;28;20449;-45
2023/02/23 01:41:15;;;;;;;26.30;23.80;;;8.70;99.90;;;;;;5025719;28;20731;-45
2023/02/23 01:44:05;;;;;;;26.23;23.63;;;8.80;99.90;;;;;;5025680;28;20453;-47
2023/02/23 01:46:34;;;;;;;26.60;23.73;;;8.70;99.90;;;;;;5025689;28;20450;-50
2023/02/23 01:49:01;;;;;;;25.83;23.33;;;8.70;99.90;;;;;;5025377;28;20421;-49
2023/02/23 01:51:30;;;;;;;24.50;22.30;;;8.70;99.90;;;;;;5024967;28;20456;-46
2023/02/23 01:54:16;;;;;;;26.47;23.97;;;8.70;99.90;;;;;;5025436;28;20460;-43
2023/02/23 01:56:48;;;;;;;25.47;22.97;;;8.70;99.90;;;;;;5025380;28;20420;-45
2023/02/23 01:59:14;;;;;;;26.30;23.90;;;8.70;99.90;;;;;;5025397;28;20467;-43
2023/02/23 02:01:41;;;;;;;25.93;23.53;;;8.70;99.90;;;;;;5024975;28;20508;-46
2023/02/23 02:04:15;;;;;;;28.13;24.07;;;8.70;99.90;;;;;;5025601;28;20421;-46
2023/02/23 02:06:43;;;;;;;25.33;22.93;;;8.70;99.90;;;;;;5025204;28;20424;-43
2023/02/23 02:09:16;;;;;;;25.60;23.20;;;8.70;99.90;;;;;;5023674;28;20445;-44
2023/02/23 02:11:45;;;;;;;25.17;22.90;;;8.70;99.90;;;;;;5024930;28;20413;-44
2023/02/23 02:14:22;;;;;;;25.60;23.30;;;8.70;99.90;;;;;;5025200;28;20847;-42
2023/02/23 02:17:14;;;;;;;25.67;23.17;;;8.70;99.90;;;;;;5025317;28;20504;-48
2023/02/23 02:19:57;;;;;;;25.70;23.30;;;8.70;99.90;;;;;;5025014;28;20409;-45
2023/02/23 02:23:08;;;;;;;25.83;23.43;;;8.70;99.90;;;;;;5024851;28;20686;-51
2023/02/23 02:26:08;;;;;;;25.17;22.93;;;8.70;99.90;;;;;;5002281;28;20421;-43
2023/02/23 02:29:02;;;;;;;25.90;23.50;;;8.70;99.90;;;;;;5015935;28;20973;-43
2023/02/23 02:31:40;;;;;;;26.40;23.70;;;8.70;99.90;;;;;;5023148;28;20439;-45
2023/02/23 02:34:31;;;;;;;26.67;24.17;;;8.70;99.90;;;;;;5024837;28;20466;-44
2023/02/23 02:37:12;;;;;;;27.07;24.43;;;8.70;99.90;;;;;;5025472;28;20417;-43
2023/02/23 02:40:15;;;;;;;25.57;23.10;;;8.80;99.90;;;;;;5020983;28;20431;-45
2023/02/23 02:43:08;;;;;;;26.57;24.07;;;8.80;99.90;;;;;;5021705;28;20903;-44
2023/02/23 02:45:46;;;;;;;25.97;23.63;;;8.80;99.90;;;;;;5021357;28;20887;-46
2023/02/23 02:48:45;;;;;;;26.27;23.77;;;8.80;99.90;;;;;;5021828;28;20786;-41
2023/02/23 02:51:27;;;;;;;26.37;23.67;;;8.80;99.90;;;;;;5021749;28;20429;-43
2023/02/23 02:54:05;;;;;;;27.17;24.60;;;8.80;99.90;;;;;;5021620;28;20469;-42
2023/02/23 02:56:38;;;;;;;27.10;24.70;;;8.80;99.90;;;;;;5021934;28;20875;-46
2023/02/23 04:19:51;;;;;;;25.80;23.20;;;8.80;99.90;;;;;;5020090;28;20962;-43
2023/02/23 04:22:16;;;;;;;26.97;24.03;;;8.80;99.90;;;;;;5019666;28;20442;-45
2023/02/23 04:24:42;;;;;;;26.20;23.70;;;8.80;99.90;;;;;;5019971;28;20429;-46
2023/02/23 04:27:07;;;;;;;27.33;24.77;;;8.80;99.90;;;;;;5019960;28;20778;-43
2023/02/23 04:29:33;;;;;;;25.83;23.33;;;8.70;99.90;;;;;;5019752;28;20186;-41
2023/02/23 04:31:59;;;;;;;26.23;23.60;;;8.70;99.90;;;;;;5019974;28;20187;-46
2023/02/23 04:34:24;;;;;;;27.00;24.20;;;8.80;99.90;;;;;;5019768;28;20202;-42
2023/02/23 04:36:50;;;;;;;27.87;24.90;;;8.80;99.90;;;;;;5019804;28;20221;-43
2023/02/23 04:39:16;;;;;;;27.77;25.10;;;8.80;99.90;;;;;;5019571;28;20647;-45
2023/02/23 04:41:41;;;;;;;27.37;24.67;;;8.80;99.90;;;;;;5019932;28;20179;-45
2023/02/23 04:44:07;;;;;;;25.80;23.40;;;8.80;99.90;;;;;;5019003;28;20796;-42
2023/02/23 04:46:33;;;;;;;28.03;25.43;;;8.80;99.90;;;;;;5019825;28;20217;-46
2023/02/23 04:48:58;;;;;;;27.27;24.77;;;8.80;99.90;;;;;;5019400;28;20206;-45
2023/02/23 04:51:29;;;;;;;27.40;24.70;;;8.80;99.90;;;;;;5019772;28;20535;-43
2023/02/23 04:53:55;;;;;;;28.43;25.73;;;8.80;99.90;;;;;;5019255;28;20206;-44
2023/02/23 04:56:21;;;;;;;27.40;24.90;;;8.80;99.90;;;;;;5019630;28;20428;-46
2023/02/23 04:58:46;;;;;;;28.00;25.30;;;8.80;99.90;;;;;;5019664;28;20410;-43
2023/02/23 05:01:12;;;;;;;28.53;25.93;;;8.90;99.90;;;;;;5019558;28;20755;-44
2023/02/23 05:03:37;;;;;;;28.90;26.10;;;8.80;99.90;;;;;;5019712;28;20214;-45
2023/02/23 05:06:03;;;;;;;29.27;26.37;;;8.90;99.90;;;;;;5019259;28;20558;-42
2023/02/23 05:08:29;;;;;;;28.23;25.53;;;8.90;99.90;;;;;;5019462;28;20186;-43
2023/02/23 05:10:55;;;;;;;27.53;24.80;;;8.90;99.90;;;;;;5019479;28;20190;-43
2023/02/23 05:13:20;;;;;;;27.27;24.57;;;8.90;99.90;;;;;;5016929;28;20481;-44
2023/02/23 05:15:46;;;;;;;27.60;24.90;;;8.90;99.90;;;;;;5018763;28;20583;-43
2023/02/23 05:18:12;;;;;;;27.20;24.60;;;8.90;99.90;;;;;;5019650;28;20670;-44
2023/02/23 05:20:40;;;;;;;26.40;23.93;;;8.90;99.90;;;;;;5019897;28;20583;-43
2023/02/23 05:23:06;;;;;;;28.30;25.50;;;8.90;99.90;;;;;;5019347;28;20185;-41
2023/02/23 05:25:32;;;;;;;28.13;25.23;;;8.90;99.90;;;;;;5019499;28;20915;-42
2023/02/23 05:27:58;;;;;;;27.23;24.53;;;8.90;99.90;;;;;;5019407;28;20183;-44
2023/02/23 05:30:24;;;;;;;27.60;25.00;;;8.80;99.90;;;;;;5019313;28;20417;-42
2023/02/23 05:32:50;;;;;;;28.63;25.93;;;8.80;99.90;;;;;;5018320;28;20436;-42
2023/02/23 05:35:15;;;;;;;28.47;25.70;;;8.70;99.90;;;;;;5019047;28;20202;-42
2023/02/23 05:37:41;;;;;;;27.07;24.37;;;8.70;99.90;;;;;;5019580;28;20815;-47
2023/02/23 05:40:07;;;;;;;29.17;26.30;;;8.60;99.90;;;;;;5019138;28;20420;-47
2023/02/23 05:42:33;;;;;;;27.53;24.93;;;8.50;99.90;;;;;;5018378;28;20182;-43
2023/02/23 05:44:59;;;;;;;27.10;24.70;;;8.50;99.90;;;;;;5017889;28;20454;-45
2023/02/23 05:47:24;;;;;;;27.97;25.23;;;8.50;99.90;;;;;;5019639;28;20194;-47
2023/02/23 05:49:50;;;;;;;29.80;26.70;;;8.50;99.90;;;;;;5019575;28;20282;-44
2023/02/23 05:52:15;;;;;;;30.03;27.03;;;8.50;99.90;;;;;;5019110;28;20194;-44
2023/02/23 05:54:41;;;;;;;28.77;25.97;;;8.40;99.90;;;;;;5019209;28;20489;-42
2023/02/23 05:57:07;;;;;;;28.73;25.83;;;8.40;99.90;;;;;;5019492;28;20889;-44
2023/02/23 05:59:32;;;;;;;30.77;27.60;;;8.30;99.90;;;;;;5018991;28;20457;-44
2023/02/23 06:01:58;;;;;;;31.83;28.53;;;8.30;99.90;;;;;;5018869;28;20926;-44
2023/02/23 06:04:24;;;;;;;29.43;26.50;;;8.30;99.90;;;;;;5019128;28;20240;-43
2023/02/23 06:06:49;;;;;;;29.60;26.70;;;8.30;99.90;;;;;;5019193;28;20233;-45
2023/02/23 06:09:15;;;;;;;29.80;26.70;;;8.20;99.90;;;;;;5018725;28;20225;-45
2023/02/23 06:11:41;;;;;;;28.73;25.83;;;8.20;99.90;;;;;;5018718;28;20202;-44
2023/02/23 06:14:06;;;;;;;30.83;27.73;;;8.10;99.90;;;;;;5020475;28;20214;-47
2023/02/23 06:16:32;;;;;;;30.23;27.23;;;8.10;99.90;;;;;;5022439;28;20262;-42
2023/02/23 06:18:57;;;;;;;29.77;26.87;;;8.10;99.90;;;;;;5022211;28;20839;-45
2023/02/23 06:21:23;;;;;;;30.80;27.40;;;8.10;99.90;;;;;;5021873;28;20174;-44
2023/02/23 06:23:49;;;;;;;28.57;25.70;;;8.10;99.90;;;;;;5022475;28;20190;-42
2023/02/23 06:26:15;;;;;;;31.13;27.03;;;8.10;99.90;;;;;;5021546;28;20479;-42
2023/02/23 06:28:40;;;;;;;31.73;28.67;;;8.00;99.90;;;;;;5022939;28;20437;-47
2023/02/23 06:31:06;;;;;;;29.70;26.80;;;8.10;99.90;;;;;;5022833;28;20218;-42
2023/02/23 06:33:32;;;;;;;30.93;27.90;;;8.10;99.90;;;;;;5022369;28;20210;-43
2023/02/23 06:35:57;;;;;;;31.00;27.90;;;8.10;99.90;;;;;;5022687;28;20198;-46
2023/02/23 06:38:23;;;;;;;31.53;28.43;;;8.10;99.90;;;;;;5019048;28;20214;-42
2023/02/23 06:40:48;;;;;;;30.57;27.33;;;8.10;99.90;;;;;;5021757;28;20617;-47
2023/02/23 06:43:14;;;;;;;29.93;26.90;;;8.10;99.90;;;;;;5023074;28;20668;-45
2023/02/23 06:45:40;;;;;;;30.83;27.70;;;8.10;99.90;;;;;;5022159;28;20438;-48
2023/02/23 06:48:05;;;;;;;32.03;28.60;;;8.20;99.90;;;;;;5022365;28;20178;-46
2023/02/23 06:50:32;;;;;;;29.83;26.93;;;8.30;99.90;;;;;;5022007;28;20186;-42
2023/02/23 06:52:58;;;;;;;32.40;29.20;;;8.30;99.90;;;;;;5022746;28;20418;-44
2023/02/23 06:55:23;;;;;;;30.50;27.33;;;8.30;99.90;;;;;;5022168;28;20472;-42
2023/02/23 06:57:50;;;;;;;31.77;28.47;;;8.30;99.90;;;;;;5021954;28;20384;-43
2023/02/23 07:00:17;;;;;;;32.47;29.30;;;8.30;99.90;;;;;;5021970;28;20171;-43
2023/02/23 07:02:43;;;;;;;31.40;28.10;;;8.30;99.90;;;;;;5022104;28;20504;-43
2023/02/23 07:05:10;;;;;;;31.17;28.03;;;8.40;99.90;;;;;;5020990;28;20611;-45
2023/02/23 07:07:36;;;;;;;31.50;28.40;;;8.40;99.90;;;;;;5021985;28;20413;-46
2023/02/23 07:10:03;;;;;;;29.70;26.73;;;8.40;99.90;;;;;;5021568;28;20985;-43
2023/02/23 07:12:29;;;;;;;29.70;26.77;;;8.50;99.90;;;;;;5021734;28;20555;-44
2023/02/23 07:14:56;;;;;;;30.43;27.47;;;8.50;99.90;;;;;;5021732;28;20520;-43
2023/02/23 07:17:22;;;;;;;31.03;27.90;;;8.60;99.90;;;;;;5022168;28;20960;-46
2023/02/23 07:19:47;;;;;;;29.97;26.97;;;8.70;99.90;;;;;;5022109;28;20565;-42
2023/02/23 07:22:13;;;;;;;31.20;28.10;;;8.80;99.90;;;;;;5021563;28;20183;-43
2023/02/23 07:24:39;;;;;;;31.53;28.43;;;8.90;99.90;;;;;;5020730;28;20182;-43
2023/02/23 07:27:04;;;;;;;29.63;26.70;;;8.90;99.90;;;;;;5021725;28;20244;-43
2023/02/23 07:29:30;;;;;;;31.23;28.13;;;9.00;99.90;;;;;;5021557;28;20724;-49
2023/02/23 07:31:55;;;;;;;32.40;29.27;;;9.00;99.90;;;;;;5021324;28;20765;-45
2023/02/23 07:34:21;;;;;;;30.83;27.87;;;9.10;99.90;;;;;;5021632;28;20219;-43
2023/02/23 07:36:47;;;;;;;31.67;28.43;;;9.10;99.90;;;;;;5019618;28;20179;-44
2023/02/23 07:39:12;;;;;;;32.57;29.17;;;9.20;99.90;;;;;;5019056;28;20273;-47
2023/02/23 07:41:38;;;;;;;30.80;27.70;;;9.20;99.90;;;;;;5021030;28;20215;-48
2023/02/23 07:44:04;;;;;;;33.60;30.23;;;9.20;99.90;;;;;;5021184;28;20242;-47
2023/02/23 07:46:29;;;;;;;29.37;26.37;;;9.30;99.90;;;;;;5020866;28;20194;-46
2023/02/23 07:48:55;;;;;;;31.87;28.87;;;9.30;99.90;;;;;;5020948;28;20425;-46
2023/02/23 07:51:21;;;;;;;31.67;28.63;;;9.40;99.90;;;;;;5021147;28;20640;-43
2023/02/23 07:53:46;;;;;;;32.23;29.00;;;9.40;99.90;;;;;;5019591;28;20589;-43
2023/02/23 07:56:12;;;;;;;30.63;27.63;;;9.50;99.90;;;;;;5021343;28;20196;-42
2023/02/23 07:58:43;;;;;;;31.13;28.13;;;9.50;99.90;;;;;;5021500;28;20550;-43
2023/02/23 08:01:11;;;;;;;30.60;27.50;;;9.50;99.90;;;;;;5020696;28;20200;-45
2023/02/23 08:03:37;;;;;;;30.67;27.63;;;9.50;99.90;;;;;;5020829;28;20437;-43
2023/02/23 08:06:03;;;;;;;30.53;27.63;;;9.60;99.90;;;;;;5020127;28;20949;-43
2023/02/23 08:08:29;;;;;;;29.67;26.77;;;9.70;99.90;;;;;;5020200;28;20453;-41
2023/02/23 08:11:02;;;;;;;30.40;27.30;;;9.80;99.90;;;;;;5020776;28;20524;-43
2023/02/23 08:13:29;;;;;;;30.70;27.70;;;9.90;99.90;;;;;;5020522;28;20263;-45
2023/02/23 08:15:54;;;;;;;30.20;27.40;;;9.90;99.90;;;;;;5020560;28;20858;-44
2023/02/23 08:18:20;;;;;;;32.00;29.07;;;10.10;99.90;;;;;;5020406;28;20417;-44
2023/02/23 08:20:46;;;;;;;29.60;26.80;;;10.20;99.90;;;;;;5020398;28;20185;-46
2023/02/23 08:23:12;;;;;;;29.57;26.87;;;10.30;99.90;;;;;;5020246;28;20213;-45
2023/02/23 08:25:37;;;;;;;30.40;27.30;;;10.30;99.90;;;;;;5020671;28;21065;-46
2023/02/23 08:28:05;;;;;;;28.30;25.37;;;10.50;99.90;;;;;;5020181;28;20576;-44
2023/02/23 08:30:32;;;;;;;29.57;26.53;;;10.50;99.90;;;;;;5020726;28;20239;-45
2023/02/23 08:33:00;;;;;;;29.07;26.27;;;10.60;99.90;;;;;;5020926;28;20409;-43
2023/02/23 08:35:26;;;;;;;28.93;26.17;;;10.80;99.90;;;;;;5018603;28;21045;-44
2023/02/23 08:37:52;;;;;;;28.80;26.00;;;10.90;99.90;;;;;;5019351;28;20593;-45
2023/02/23 08:40:19;;;;;;;29.23;26.50;;;10.90;99.90;;;;;;5020437;28;20923;-46
2023/02/23 08:42:47;;;;;;;30.73;27.87;;;10.90;99.90;;;;;;5019993;28;20704;-48
2023/02/23 08:45:13;;;;;;;28.13;25.63;;;10.90;99.90;;;;;;5018931;28;20900;-42
2023/02/23 08:47:39;;;;;;;28.90;26.40;;;11.10;99.90;;;;;;5020043;28;20886;-43
2023/02/23 08:50:05;;;;;;;28.10;25.50;;;11.10;99.90;;;;;;5019924;28;20499;-43
2023/02/23 08:52:31;;;;;;;29.73;26.73;;;11.30;99.90;;;;;;5018980;28;20186;-48
2023/02/23 08:54:57;;;;;;;29.10;26.50;;;11.50;99.90;;;;;;5019206;28;20499;-51
2023/02/23 08:57:22;;;;;;;28.50;26.00;;;11.70;99.90;;;;;;5019470;28;20416;-44
2023/02/23 08:59:48;;;;;;;28.87;26.27;;;11.90;99.90;;;;;;5019477;28;20427;-46
2023/02/23 09:02:14;;;;;;;27.40;25.10;;;12.20;99.90;;;;;;5018935;28;20177;-45
2023/02/23 09:04:40;;;;;;;27.40;25.10;;;12.50;99.90;;;;;;5018181;28;20208;-43
2023/02/23 09:07:07;;;;;;;28.43;25.83;;;12.50;99.90;;;;;;5019516;28;20418;-45
2023/02/23 09:09:33;;;;;;;27.93;25.53;;;12.60;99.90;;;;;;5019884;28;20778;-48
2023/02/23 09:11:59;;;;;;;27.90;25.50;;;12.70;99.90;;;;;;5019398;28;20465;-42
2023/02/23 09:14:25;;;;;;;29.23;26.67;;;12.70;99.90;;;;;;5019546;28;20271;-43
2023/02/23 09:16:51;;;;;;;27.63;25.07;;;12.80;99.90;;;;;;5019238;28;20420;-46
2023/02/23 09:19:16;;;;;;;27.37;25.07;;;12.90;99.90;;;;;;5019634;28;20424;-49
2023/02/23 09:21:43;;;;;;;28.33;25.73;;;12.60;99.90;;;;;;5017858;28;20236;-48
2023/02/23 09:24:08;;;;;;;28.33;25.93;;;12.70;99.90;;;;;;5019259;28;20193;-45
2023/02/23 09:26:34;;;;;;;29.40;26.73;;;12.80;99.90;;;;;;5019397;28;20448;-46
2023/02/23 09:29:00;;;;;;;27.80;25.30;;;12.80;99.90;;;;;;5019392;28;20194;-46
2023/02/23 09:31:26;;;;;;;28.17;25.67;;;12.90;99.90;;;;;;5017854;28;20197;-45
2023/02/23 09:33:53;;;;;;;29.23;26.63;;;12.90;99.90;;;;;;5019704;28;20468;-44
2023/02/23 09:36:22;;;;;;;28.50;26.00;;;12.80;99.90;;;;;;5018162;28;20432;-46
2023/02/23 09:38:54;;;;;;;28.80;26.20;;;12.80;99.90;;;;;;5019220;28;20423;-43
2023/02/23 09:41:26;;;;;;;26.97;24.67;;;12.90;99.90;;;;;;5019170;28;20456;-45
2023/02/23 09:44:06;;;;;;;27.23;25.03;;;12.90;99.90;;;;;;5019315;28;20750;-45
2023/02/23 09:47:01;;;;;;;27.70;25.30;;;12.90;99.90;;;;;;5019382;28;20421;-44
2023/02/23 09:49:32;;;;;;;27.83;25.53;;;13.10;99.90;;;;;;5023328;28;20934;-43
2023/02/23 09:52:00;;;;;;;25.80;23.50;;;13.20;99.90;;;;;;5022610;28;20444;-47
2023/02/23 09:54:31;;;;;;;27.80;25.30;;;13.40;99.30;;;;;;5022969;28;20790;-44
2023/02/23 09:56:59;;;;;;;28.67;26.07;;;13.40;99.30;;;;;;5023394;28;20425;-46
2023/02/23 09:59:25;;;;;;;27.17;24.73;;;13.50;99.20;;;;;;5023238;28;20409;-46
2023/02/23 10:02:18;;;;;;;28.27;25.60;;;13.60;99.00;;;;;;5023032;28;21085;-45
2023/02/23 10:04:55;;;;;;;27.50;25.10;;;13.50;98.60;;;;;;5022780;28;20837;-46
2023/02/23 10:07:42;;;;;;;27.30;24.90;;;13.70;99.10;;;;;;5022880;28;20425;-41
2023/02/23 10:10:27;;;;;;;28.63;26.03;;;13.90;98.20;;;;;;5022869;28;20413;-48
2023/02/23 10:13:27;;;;;;;27.63;25.20;;;14.20;97.90;;;;;;5023067;28;20464;-47
2023/02/23 10:16:29;;;;;;;27.90;25.47;;;14.50;97.50;;;;;;5022570;28;20880;-43
2023/02/23 10:19:00;;;;;;;28.53;26.13;;;14.80;96.60;;;;;;5020158;28;20456;-45
2023/02/23 10:21:40;;;;;;;26.40;24.20;;;15.00;95.90;;;;;;5023123;28;20475;-45
2023/02/23 10:24:21;;;;;;;26.93;24.67;;;15.10;95.60;;;;;;5022977;28;20413;-45
2023/02/23 10:26:53;;;;;;;26.73;24.53;;;15.30;94.90;;;;;;5022270;28;20417;-45
2023/02/23 10:29:31;;;;;;;26.67;24.47;;;15.40;94.70;;;;;;5022412;28;20848;-44
2023/02/23 10:32:15;;;;;;;27.10;24.90;;;15.40;94.20;;;;;;5022497;28;20609;-48
2023/02/23 10:34:43;;;;;;;26.87;24.67;;;15.60;93.90;;;;;;5022957;28;20461;-44
2023/02/23 10:37:11;;;;;;;27.10;24.90;;;15.80;93.80;;;;;;5022522;28;20457;-44
2023/02/23 10:39:39;;;;;;;25.47;23.37;;;16.40;93.10;;;;;;5022506;28;20771;-47
2023/02/23 10:42:12;;;;;;;28.20;25.80;;;16.90;91.80;;;;;;5022531;28;20945;-45
2023/02/23 10:44:37;;;;;;;25.93;23.93;;;17.40;90.60;;;;;;5022544;28;20413;-45
2023/02/23 10:47:13;;;;;;;25.33;23.33;;;17.50;89.40;;;;;;5022256;28;20898;-45
2023/02/23 10:49:42;;;;;;;27.10;24.93;;;17.70;87.00;;;;;;5021471;28;20309;-47
2023/02/23 10:52:15;;;;;;;26.63;24.53;;;18.10;84.10;;;;;;5022091;28;20499;-46
2023/02/23 10:54:44;;;;;;;25.83;23.93;;;18.30;82.70;;;;;;5021954;28;20457;-46
2023/02/23 10:57:13;;;;;;;26.13;24.07;;;18.40;81.30;;;;;;5022130;28;20424;-43
2023/02/23 11:00:03;;;;;;;26.13;24.07;;;18.40;80.40;;;;;;5021319;28;20422;-48
2023/02/23 11:02:29;;;;;;;26.57;24.47;;;18.20;79.90;;;;;;5021733;28;20421;-50
2023/02/23 11:04:57;;;;;;;27.27;25.27;;;18.40;80.30;;;;;;5021970;28;20424;-44
2023/02/23 11:07:29;;;;;;;25.67;23.70;;;19.00;77.90;;;;;;5022011;28;20427;-48
2023/02/23 11:09:57;;;;;;;23.97;22.17;;;19.50;75.50;;;;;;5022039;28;20450;-45
2023/02/23 11:12:41;;;;;;;24.77;22.77;;;19.80;73.60;;;;;;5021094;28;20477;-43
2023/02/23 11:15:42;;;;;;;22.40;20.60;;;20.10;71.30;;;;;;5021520;28;20852;-47
2023/02/23 11:18:19;;;;;;;23.27;21.57;;;20.50;69.20;;;;;;5020774;28;20635;-44
2023/02/23 11:20:45;;;;;;;23.20;21.50;;;20.40;65.80;;;;;;5021553;28;20769;-48
2023/02/23 11:23:27;;;;;;;22.83;21.13;;;20.50;66.40;;;;;;5021575;28;20417;-47
2023/02/23 11:25:55;;;;;;;22.83;21.13;;;20.70;64.40;;;;;;5021368;28;20253;-46
2023/02/23 11:28:40;;;;;;;23.77;21.97;;;20.80;63.20;;;;;;5021203;28;20417;-44
2023/02/23 11:31:17;;;;;;;24.60;22.90;;;20.70;60.60;;;;;;5021904;28;20425;-45
2023/02/23 11:33:45;;;;;;;21.27;19.73;;;20.90;60.60;;;;;;5021560;28;20460;-44
2023/02/23 11:36:37;;;;;;;23.07;21.47;;;20.90;61.30;;;;;;5020377;28;20958;-42
2023/02/23 11:39:15;;;;;;;23.40;21.70;;;21.10;60.20;;;;;;5020443;28;20437;-44
2023/02/23 11:41:41;;;;;;;23.50;21.80;;;21.50;59.60;;;;;;5021527;28;20425;-47
2023/02/23 11:44:19;;;;;;;23.97;22.23;;;22.00;58.20;;;;;;5020995;28;20435;-45
2023/02/23 11:46:45;;;;;;;24.17;22.50;;;22.60;57.20;;;;;;5020898;28;20434;-44
2023/02/23 11:49:20;;;;;;;23.30;21.70;;;22.80;55.80;;;;;;5021238;28;20426;-46
2023/02/23 11:51:51;;;;;;;23.33;21.80;;;22.90;54.40;;;;;;5021337;28;20771;-45
2023/02/23 11:54:27;;;;;;;23.47;21.93;;;23.00;53.20;;;;;;5020883;28;20460;-48
2023/02/23 11:56:56;;;;;;;24.83;23.03;;;23.20;52.40;;;;;;5021003;28;20444;-47
2023/02/23 11:59:29;;;;;;;23.10;21.60;;;23.20;52.20;;;;;;5020594;28;20425;-46
2023/02/23 12:02:03;;;;;;;21.97;20.57;;;23.10;51.90;;;;;;5021340;28;20543;-48
2023/02/23 12:04:40;;;;;;;24.80;23.00;;;23.10;51.30;;;;;;5020656;28;20459;-48
2023/02/23 12:07:42;;;;;;;23.00;21.30;;;23.00;50.60;;;;;;5020856;28;20468;-45
2023/02/23 12:10:33;;;;;;;23.07;21.47;;;22.80;50.70;;;;;;5017671;28;20938;-44
2023/02/23 12:13:46;;;;;;;22.37;20.77;;;22.60;51.00;;;;;;5018957;28;20476;-44
2023/02/23 12:16:24;;;;;;;23.80;22.13;;;22.60;51.80;;;;;;4997742;28;20653;-44
2023/02/23 12:19:08;;;;;;;22.20;20.57;;;22.50;51.60;;;;;;5019169;28;20783;-45
2023/02/23 12:21:37;;;;;;;22.90;21.23;;;22.30;51.60;;;;;;5020591;28;20921;-49
2023/02/23 12:24:30;;;;;;;21.93;20.33;;;21.60;52.40;;;;;;5020242;28;20504;-46
2023/02/23 12:27:17;;;;;;;22.07;20.47;;;21.60;53.00;;;;;;5020403;28;21192;-48
2023/02/23 12:30:01;;;;;;;22.90;21.23;;;21.30;53.60;;;;;;5020703;28;20431;-46
2023/02/23 12:32:35;;;;;;;23.43;21.80;;;21.00;53.20;;;;;;5020367;28;20463;-46
2023/02/23 12:35:20;;;;;;;24.73;22.93;;;21.10;53.20;;;;;;5020069;28;20420;-47
2023/02/23 12:37:59;;;;;;;23.70;22.07;;;21.00;52.90;;;;;;5020303;28;20447;-48
2023/02/23 12:40:28;;;;;;;22.97;21.40;;;21.10;54.10;;;;;;5018328;28;21463;-47
2023/02/23 12:43:13;;;;;;;21.97;20.47;;;21.50;53.60;;;;;;5020191;28;20434;-45
2023/02/23 12:45:44;;;;;;;22.00;20.30;;;21.50;53.50;;;;;;5020162;28;20877;-46
2023/02/23 12:48:52;;;;;;;22.23;20.63;;;21.30;54.50;;;;;;5019580;28;20420;-46
2023/02/23 12:51:26;;;;;;;22.33;20.77;;;21.40;53.70;;;;;;5020097;28;20412;-43
2023/02/23 12:53:52;;;;;;;21.63;20.13;;;21.30;52.90;;;;;;5019768;28;20420;-46
2023/02/23 12:56:44;;;;;;;20.47;18.87;;;21.40;54.50;;;;;;5020032;28;20785;-45
2023/02/23 12:59:19;;;;;;;21.77;20.27;;;21.60;52.80;;;;;;5020006;28;20202;-49
2023/02/23 13:02:23;;;;;;;21.73;20.23;;;21.90;52.10;;;;;;5020321;28;20475;-43
2023/02/23 13:04:52;;;;;;;22.63;20.93;;;22.40;51.80;;;;;;5019581;28;20469;-47
2023/02/23 13:07:33;;;;;;;21.30;19.63;;;21.90;50.70;;;;;;5019515;28;20467;-45
2023/02/23 13:10:02;;;;;;;24.70;23.00;;;21.60;52.60;;;;;;5033269;28;20476;-47
2023/02/23 13:12:43;;;;;;;20.53;19.03;;;21.20;52.10;;;;;;5018494;28;20851;-47
2023/02/23 13:15:12;;;;;;;22.07;20.47;;;21.20;53.30;;;;;;5019665;28;20440;-46
2023/02/23 13:17:52;;;;;;;22.80;21.20;;;20.90;54.20;;;;;;5020326;28;20440;-43
2023/02/23 13:20:48;;;;;;;20.97;19.47;;;21.10;53.80;;;;;;5019660;28;20420;-43
2023/02/23 13:23:24;;;;;;;22.30;20.60;;;21.30;53.10;;;;;;5017696;28;20839;-46
2023/02/23 13:26:00;;;;;;;20.13;18.53;;;21.10;54.10;;;;;;5019517;28;20648;-43
2023/02/23 13:28:57;;;;;;;21.10;19.60;;;21.10;54.50;;;;;;5019701;28;20933;-47
2023/02/23 13:31:32;;;;;;;22.30;20.70;;;21.40;54.60;;;;;;5011415;28;20539;-43
2023/02/23 13:33:59;;;;;;;20.33;18.83;;;21.50;53.70;;;;;;5019404;28;20408;-45
2023/02/23 13:36:28;;;;;;;22.40;20.80;;;21.30;54.00;;;;;;5019694;28;21000;-43
2023/02/23 13:39:27;;;;;;;23.37;21.70;;;20.80;54.40;;;;;;5018666;28;20440;-47
2023/02/23 13:42:13;;;;;;;21.80;20.10;;;20.60;54.60;;;;;;5019220;28;20927;-46
2023/02/23 13:44:51;;;;;;;23.07;21.47;;;20.30;55.50;;;;;;5019427;28;20453;-44
2023/02/23 13:47:42;;;;;;;23.50;21.80;;;20.00;55.80;;;;;;5019250;28;20524;-44
2023/02/23 13:50:29;;;;;;;21.60;20.00;;;19.60;56.30;;;;;;5018842;28;20417;-47
2023/02/23 13:53:03;;;;;;;21.93;20.23;;;19.10;57.30;;;;;;5019736;28;20440;-49
2023/02/23 13:55:36;;;;;;;23.00;21.30;;;18.60;59.30;;;;;;5019206;28;20444;-43
2023/02/23 13:58:25;;;;;;;22.43;20.60;;;18.30;60.30;;;;;;5019374;28;20443;-48
2023/02/23 14:01:13;;;;;;;21.70;20.00;;;18.10;61.50;;;;;;5019457;28;20429;-44
2023/02/23 14:03:45;;;;;;;24.13;22.33;;;17.90;62.80;;;;;;5019390;28;20460;-44
2023/02/23 14:06:14;;;;;;;24.40;22.43;;;17.70;63.10;;;;;;5019042;28;20417;-47
2023/02/23 14:08:43;;;;;;;22.40;20.60;;;17.30;63.80;;;;;;5019107;28;20830;-43
2023/02/23 14:11:09;;;;;;;21.77;20.27;;;17.10;66.60;;;;;;5018211;28;20441;-43
2023/02/23 14:13:59;;;;;;;21.57;19.77;;;16.90;68.20;;;;;;5019211;28;20463;-44
2023/02/23 14:16:26;;;;;;;23.23;21.33;;;16.80;69.20;;;;;;5019135;28;20273;-44